Time;durP1;ratioP1;P1;durP2;ratioP2;P2;SDS_P1;SDS_P2;PMS_P1;PMS_P2;Temp;Humidity;BMP_temperature;BMP_pressure;BME280_temperature;BME280_humidity;BME280_pressure;Samples;Min_cycle;Max_cycle;Signal;HPM_P1;HPM_P2
2022/04/27 00:02:47;;;;;;;16.03;2.73;;;6.00;52.90;;;;;;6199191;28;20309;-65
2022/04/27 00:05:53;;;;;;;9.97;2.17;;;6.10;53.00;;;;;;6199781;28;20327;-65
2022/04/27 00:08:59;;;;;;;14.93;3.07;;;6.10;52.60;;;;;;6198079;28;20253;-65
2022/04/27 00:12:05;;;;;;;28.17;3.07;;;6.10;52.40;;;;;;6199850;28;20216;-66
2022/04/27 00:15:12;;;;;;;35.23;3.50;;;6.10;52.20;;;;;;6200067;28;20232;-65
2022/04/27 00:18:19;;;;;;;39.00;3.80;;;6.10;52.70;;;;;;6223233;28;20231;-63
2022/04/27 00:21:24;;;;;;;23.80;3.10;;;6.00;53.30;;;;;;6224128;28;20263;-65
2022/04/27 00:24:30;;;;;;;13.60;2.63;;;6.00;53.10;;;;;;6223482;28;20635;-65
2022/04/27 00:27:36;;;;;;;18.83;2.73;;;5.90;53.40;;;;;;6223674;28;20238;-64
2022/04/27 00:30:41;;;;;;;17.70;3.07;;;5.90;53.40;;;;;;6205921;28;20224;-64
2022/04/27 00:33:47;;;;;;;15.97;2.27;;;5.80;53.60;;;;;;6222772;28;20224;-65
2022/04/27 00:36:53;;;;;;;23.47;2.17;;;5.70;54.40;;;;;;6223319;28;20212;-65
2022/04/27 00:39:58;;;;;;;14.93;2.20;;;5.60;55.60;;;;;;6223293;28;20236;-65
2022/04/27 00:43:04;;;;;;;21.73;2.70;;;5.60;56.70;;;;;;6222660;28;20233;-65
2022/04/27 00:46:11;;;;;;;8.77;2.00;;;5.50;56.70;;;;;;6223498;28;20210;-66
2022/04/27 00:49:18;;;;;;;17.20;2.33;;;5.50;56.70;;;;;;6222385;28;20239;-65
2022/04/27 00:52:24;;;;;;;11.00;1.97;;;5.50;56.90;;;;;;6204953;28;20216;-65
2022/04/27 00:55:30;;;;;;;11.93;2.20;;;5.40;57.40;;;;;;6223232;28;20205;-64
2022/04/27 00:58:35;;;;;;;30.03;2.70;;;5.40;58.50;;;;;;6205149;28;20236;-65
2022/04/27 01:01:55;;;;;;;15.17;2.70;;;5.40;59.70;;;;;;6223708;28;20229;-65
2022/04/27 01:05:04;;;;;;;15.33;2.27;;;5.40;61.30;;;;;;6222480;28;20319;-64
2022/04/27 01:08:15;;;;;;;12.00;2.13;;;5.40;61.70;;;;;;6197921;28;20240;-65
2022/04/27 01:11:21;;;;;;;24.43;3.10;;;5.40;63.10;;;;;;6168463;28;20211;-66
2022/04/27 01:14:41;;;;;;;7.83;2.70;;;5.40;64.70;;;;;;6159760;28;20249;-65
2022/04/27 01:17:47;;;;;;;4.47;1.80;;;5.40;66.10;;;;;;6160230;28;20234;-65
2022/04/27 01:20:53;;;;;;;15.57;2.03;;;5.40;68.10;;;;;;6174102;28;20225;-66
2022/04/27 01:23:59;;;;;;;8.47;2.13;;;5.40;69.30;;;;;;6156099;28;20242;-64
2022/04/27 01:27:05;;;;;;;3.20;1.57;;;5.30;71.60;;;;;;6156065;28;20225;-65
2022/04/27 01:30:12;;;;;;;6.13;1.80;;;5.30;74.80;;;;;;6157454;28;20240;-65
2022/04/27 01:33:18;;;;;;;6.33;1.93;;;5.20;82.70;;;;;;6172223;28;20229;-68
2022/04/27 01:36:25;;;;;;;18.93;2.27;;;5.30;86.60;;;;;;6174216;28;20530;-65
2022/04/27 01:39:30;;;;;;;16.13;2.47;;;5.40;89.40;;;;;;6173504;28;20253;-65
2022/04/27 01:42:36;;;;;;;9.33;2.03;;;5.40;90.70;;;;;;6173753;28;20590;-65
2022/04/27 01:45:44;;;;;;;4.50;1.83;;;5.40;92.10;;;;;;6193776;28;20212;-65
2022/04/27 01:48:50;;;;;;;2.47;1.77;;;5.30;93.60;;;;;;6197587;28;20241;-65
2022/04/27 01:55:20;;;;;;;3.90;1.40;;;5.20;95.90;;;;;;6190292;28;20217;-65
2022/04/27 01:58:26;;;;;;;6.73;1.80;;;5.20;96.40;;;;;;6196953;28;20618;-64
2022/04/27 02:01:32;;;;;;;7.03;1.87;;;5.30;96.70;;;;;;6192622;28;20214;-64
2022/04/27 02:04:39;;;;;;;6.07;1.77;;;5.30;97.10;;;;;;6193870;28;20244;-64
2022/04/27 02:07:48;;;;;;;10.23;1.73;;;5.20;98.00;;;;;;6200767;28;20247;-64
2022/04/27 02:10:54;;;;;;;22.07;2.30;;;5.20;98.20;;;;;;6204341;28;20197;-64
2022/04/27 02:14:02;;;;;;;11.60;2.57;;;5.20;98.60;;;;;;6209295;28;20266;-64
2022/04/27 02:17:10;;;;;;;6.47;1.60;;;5.20;99.50;;;;;;6225240;28;20294;-67
2022/04/27 02:20:18;;;;;;;1.40;1.40;;;5.20;99.40;;;;;;6209916;28;20222;-65
2022/04/27 02:23:24;;;;;;;8.43;3.33;;;5.20;99.60;;;;;;6208958;28;20240;-66
2022/04/27 02:26:29;;;;;;;3.23;1.50;;;5.10;99.90;;;;;;6227721;28;20215;-65
2022/04/27 02:29:36;;;;;;;7.63;2.03;;;5.10;99.90;;;;;;6212484;28;20235;-64
2022/04/27 02:32:53;;;;;;;10.67;1.70;;;5.20;99.90;;;;;;6214349;28;20322;-63
2022/04/27 02:35:58;;;;;;;17.47;3.03;;;5.20;99.90;;;;;;6229936;28;20209;-65
2022/04/27 02:39:05;;;;;;;21.30;2.13;;;5.20;99.90;;;;;;6224552;28;20242;-64
2022/04/27 02:42:11;;;;;;;10.57;2.00;;;5.20;99.90;;;;;;6224672;28;20213;-65
2022/04/27 02:45:17;;;;;;;8.37;1.90;;;5.10;99.90;;;;;;6225315;28;20226;-65
2022/04/27 02:48:22;;;;;;;7.47;1.63;;;5.10;99.90;;;;;;6224128;28;20232;-65
2022/04/27 02:54:52;;;;;;;2.10;1.87;;;5.10;99.90;;;;;;6208162;28;20242;-64
2022/04/27 02:57:58;;;;;;;1.93;1.77;;;5.00;99.90;;;;;;6225792;28;20233;-64
2022/04/27 03:01:05;;;;;;;1.57;1.57;;;5.10;99.90;;;;;;6217220;28;20216;-64
2022/04/27 03:04:13;;;;;;;2.27;1.60;;;5.20;99.90;;;;;;6183996;28;20235;-65
2022/04/27 03:07:19;;;;;;;2.77;1.33;;;5.10;99.90;;;;;;6207907;28;20243;-64
2022/04/27 03:10:29;;;;;;;2.00;1.40;;;5.20;99.90;;;;;;6187069;28;20211;-64
2022/04/27 03:13:35;;;;;;;4.07;1.53;;;5.10;99.90;;;;;;6207673;28;20242;-66
2022/04/27 03:16:51;;;;;;;5.87;1.83;;;5.10;99.90;;;;;;6210208;28;20554;-64
2022/04/27 03:19:56;;;;;;;2.97;1.67;;;5.10;99.90;;;;;;6196979;28;20247;-65
2022/04/27 03:23:02;;;;;;;2.77;1.30;;;5.10;99.90;;;;;;6184453;28;20262;-65
2022/04/27 03:26:09;;;;;;;1.47;1.47;;;5.10;99.90;;;;;;6199676;28;20223;-65
2022/04/27 03:29:15;;;;;;;2.97;1.30;;;5.20;99.90;;;;;;6199307;28;20682;-65
2022/04/27 03:32:22;;;;;;;8.33;1.57;;;5.20;99.90;;;;;;6198789;28;20562;-66
2022/04/27 03:35:32;;;;;;;5.23;1.40;;;5.20;99.90;;;;;;6197188;28;20220;-64
2022/04/27 03:38:38;;;;;;;4.07;1.63;;;5.30;99.90;;;;;;6216642;28;20235;-65
2022/04/27 03:41:45;;;;;;;5.63;1.50;;;5.20;99.90;;;;;;6207217;28;20214;-65
2022/04/27 03:44:51;;;;;;;5.23;1.60;;;5.30;99.90;;;;;;6222390;28;20249;-64
2022/04/27 03:48:00;;;;;;;2.77;1.50;;;5.30;99.90;;;;;;6206498;28;20228;-64
2022/04/27 03:51:07;;;;;;;1.50;1.40;;;5.40;99.90;;;;;;6207484;28;20211;-66
2022/04/27 03:54:13;;;;;;;1.53;1.30;;;5.30;99.90;;;;;;6222985;28;20243;-65
2022/04/27 03:57:20;;;;;;;1.33;1.20;;;5.40;99.90;;;;;;6222650;28;20666;-65
2022/04/27 04:00:26;;;;;;;2.67;1.20;;;5.40;99.90;;;;;;6206723;28;20577;-64
2022/04/27 04:03:41;;;;;;;1.77;1.50;;;5.30;99.90;;;;;;6222076;28;20235;-65
2022/04/27 04:06:48;;;;;;;2.40;1.43;;;5.30;99.90;;;;;;6206626;28;20232;-65
2022/04/27 04:09:54;;;;;;;3.53;1.47;;;5.30;99.90;;;;;;6202084;28;20233;-64
2022/04/27 04:13:02;;;;;;;2.43;1.50;;;5.30;99.90;;;;;;6198330;28;20722;-64
2022/04/27 04:16:27;;;;;;;4.20;1.33;;;5.20;99.90;;;;;;6198968;28;20227;-65
2022/04/27 04:20:02;;;;;;;6.00;1.70;;;5.30;99.90;;;;;;6197487;28;20236;-66
2022/04/27 04:23:24;;;;;;;11.27;1.97;;;5.40;99.90;;;;;;6197403;28;20687;-65
2022/04/27 04:30:02;;;;;;;1.83;1.50;;;5.50;99.90;;;;;;6197586;28;20331;-65
2022/04/27 04:33:09;;;;;;;2.67;1.40;;;5.50;99.90;;;;;;6187915;28;20239;-65
2022/04/27 04:36:21;;;;;;;1.37;1.17;;;5.70;99.90;;;;;;6207617;28;20217;-65
2022/04/27 04:39:27;;;;;;;2.13;1.60;;;5.50;99.90;;;;;;6203542;28;20239;-64
2022/04/27 04:42:33;;;;;;;4.83;1.50;;;5.60;99.90;;;;;;6188220;28;20267;-65
2022/04/27 04:45:41;;;;;;;1.77;1.60;;;5.60;99.90;;;;;;6198049;28;20225;-65
2022/04/27 04:49:19;;;;;;;1.70;1.50;;;5.70;99.90;;;;;;6187309;28;20235;-65
2022/04/27 04:52:50;;;;;;;2.57;1.43;;;5.70;99.90;;;;;;6178579;28;20671;-65
2022/04/27 04:56:12;;;;;;;1.67;1.33;;;5.70;99.90;;;;;;6181877;28;20214;-66
2022/04/27 04:59:29;;;;;;;3.67;1.50;;;5.70;99.90;;;;;;6198193;28;20240;-64
2022/04/27 05:02:54;;;;;;;1.47;1.37;;;5.80;99.90;;;;;;6198785;28;20675;-66
2022/04/27 05:06:18;;;;;;;2.90;1.50;;;5.80;99.90;;;;;;6198329;28;20236;-65
2022/04/27 05:09:47;;;;;;;3.30;1.63;;;5.70;99.90;;;;;;6164631;28;20566;-64
2022/04/27 05:13:18;;;;;;;2.93;1.60;;;5.80;99.90;;;;;;6222356;28;20585;-64
2022/04/27 05:16:27;;;;;;;4.53;1.70;;;5.90;99.90;;;;;;6222698;28;20225;-65
2022/04/27 05:20:08;;;;;;;3.40;1.53;;;5.80;99.90;;;;;;6207021;28;20247;-64
2022/04/27 05:23:37;;;;;;;3.20;1.70;;;5.90;99.90;;;;;;6203181;28;20243;-65
2022/04/27 05:27:01;;;;;;;3.43;1.40;;;6.00;99.90;;;;;;6222236;28;20594;-65
2022/04/27 05:34:17;;;;;;;2.53;1.53;;;6.10;99.90;;;;;;6221954;28;20235;-65
2022/04/27 05:37:32;;;;;;;3.43;2.17;;;6.30;99.90;;;;;;6204623;28;20303;-65
2022/04/27 05:41:13;;;;;;;2.90;1.60;;;6.30;99.90;;;;;;6171588;28;20226;-66
2022/04/27 05:44:44;;;;;;;1.50;1.50;;;6.20;98.90;;;;;;6202444;28;20305;-65
2022/04/27 05:48:03;;;;;;;1.40;1.30;;;6.20;98.80;;;;;;6204011;28;20232;-67
2022/04/27 05:51:21;;;;;;;1.40;1.30;;;6.10;96.10;;;;;;6204949;28;20581;-65
2022/04/27 05:55:01;;;;;;;1.63;1.50;;;5.90;94.50;;;;;;6215437;28;20652;-66
2022/04/27 05:58:25;;;;;;;3.73;1.27;;;5.90;94.20;;;;;;6221990;28;20236;-66
2022/04/27 06:01:49;;;;;;;4.67;1.50;;;6.00;93.30;;;;;;6222208;28;20223;-66
2022/04/27 06:05:01;;;;;;;8.17;1.63;;;6.00;91.80;;;;;;6220164;28;20327;-65
2022/04/27 06:08:09;;;;;;;2.53;1.20;;;6.00;90.80;;;;;;6203972;28;20238;-66
2022/04/27 06:11:19;;;;;;;5.60;1.50;;;6.00;91.90;;;;;;6189470;28;20208;-67
2022/04/27 06:15:00;;;;;;;2.23;1.20;;;6.20;91.00;;;;;;6197192;28;20247;-68
2022/04/27 06:18:13;;;;;;;4.27;1.50;;;6.20;87.20;;;;;;6180876;28;20237;-66
2022/04/27 06:21:19;;;;;;;3.93;1.37;;;6.20;88.90;;;;;;6180552;28;20232;-67
2022/04/27 06:24:27;;;;;;;1.83;1.33;;;6.50;88.60;;;;;;6198688;28;20243;-66
2022/04/27 06:27:44;;;;;;;2.17;1.10;;;6.50;86.00;;;;;;6197225;28;20247;-66
2022/04/27 06:30:50;;;;;;;3.40;1.30;;;6.50;85.20;;;;;;6197748;28;20214;-66
2022/04/27 06:33:55;;;;;;;4.10;1.10;;;6.50;84.20;;;;;;6180863;28;20237;-67
2022/04/27 06:37:00;;;;;;;1.67;1.13;;;6.70;83.60;;;;;;6180070;28;20214;-66
2022/04/27 06:40:14;;;;;;;0.93;0.87;;;6.80;81.80;;;;;;6179711;28;20313;-66
2022/04/27 06:43:21;;;;;;;1.23;1.13;;;6.80;80.80;;;;;;6196954;28;20225;-66
2022/04/27 06:46:26;;;;;;;3.73;1.20;;;6.80;78.50;;;;;;6197785;28;20624;-67
2022/04/27 06:49:50;;;;;;;2.20;0.97;;;6.90;80.00;;;;;;6196842;28;20626;-66
2022/04/27 06:53:15;;;;;;;1.50;1.00;;;7.00;78.50;;;;;;6201620;28;20229;-65
2022/04/27 06:56:39;;;;;;;1.10;1.00;;;7.00;76.70;;;;;;6202204;28;20214;-66
2022/04/27 07:00:02;;;;;;;2.80;1.00;;;7.00;76.80;;;;;;6184315;28;20233;-66
2022/04/27 07:03:11;;;;;;;0.90;0.90;;;7.10;77.90;;;;;;6201102;28;20237;-65
2022/04/27 07:06:18;;;;;;;1.70;1.00;;;7.10;77.30;;;;;;6184302;28;20252;-66
2022/04/27 07:09:27;;;;;;;1.10;1.03;;;7.00;76.30;;;;;;6201891;28;20237;-66
2022/04/27 07:12:32;;;;;;;1.27;1.20;;;7.10;75.90;;;;;;6225571;28;20260;-66
2022/04/27 07:15:39;;;;;;;2.60;1.67;;;7.30;76.50;;;;;;6225882;28;20565;-66
2022/04/27 07:18:44;;;;;;;1.30;1.00;;;7.30;75.00;;;;;;6225037;28;20241;-66
2022/04/27 07:21:50;;;;;;;4.43;1.10;;;7.40;74.90;;;;;;6229594;28;20640;-66
2022/04/27 07:24:55;;;;;;;4.47;1.50;;;7.50;74.90;;;;;;6229481;28;20249;-67
2022/04/27 07:28:00;;;;;;;1.20;1.10;;;7.50;72.30;;;;;;6228245;28;20260;-66
2022/04/27 07:31:10;;;;;;;1.20;1.10;;;7.20;70.60;;;;;;6229036;28;20213;-66
2022/04/27 07:34:16;;;;;;;6.50;1.50;;;7.20;71.70;;;;;;6226556;28;20240;-66
2022/04/27 07:37:21;;;;;;;2.67;0.93;;;7.30;71.80;;;;;;6227492;28;20205;-65
2022/04/27 07:40:26;;;;;;;3.67;1.30;;;7.30;70.40;;;;;;6230225;28;20572;-64
2022/04/27 07:43:34;;;;;;;7.20;1.20;;;7.30;72.10;;;;;;6228437;28;20239;-66
2022/04/27 07:46:47;;;;;;;1.80;1.00;;;7.20;71.20;;;;;;6225031;28;20236;-65
2022/04/27 07:49:52;;;;;;;4.83;1.20;;;7.30;71.60;;;;;;6224877;28;20247;-66
2022/04/27 07:52:57;;;;;;;4.47;1.40;;;7.30;70.60;;;;;;6224879;28;20244;-66
2022/04/27 07:56:04;;;;;;;2.17;1.20;;;7.40;71.10;;;;;;6224650;28;20215;-66
2022/04/27 07:59:10;;;;;;;1.20;1.20;;;7.40;70.90;;;;;;6224238;28;20241;-64
2022/04/27 08:02:16;;;;;;;2.63;1.10;;;7.40;70.60;;;;;;6223681;28;20212;-66
2022/04/27 08:05:22;;;;;;;1.75;1.00;;;7.50;68.60;;;;;;6224877;28;20667;-66
2022/04/27 08:08:27;;;;;;;1.75;1.00;;;7.60;68.00;;;;;;6224434;28;20241;-66
2022/04/27 08:11:34;;;;;;;7.45;1.23;;;7.70;67.70;;;;;;6206227;28;20213;-65
2022/04/27 08:14:39;;;;;;;2.20;1.00;;;7.70;66.80;;;;;;6199505;28;20245;-66
2022/04/27 08:17:53;;;;;;;8.10;1.00;;;7.80;66.10;;;;;;6199125;28;20225;-66
2022/04/27 08:21:21;;;;;;;1.10;1.10;;;7.80;64.90;;;;;;6199566;28;20206;-65
2022/04/27 08:24:26;;;;;;;3.30;1.17;;;7.80;65.00;;;;;;6199166;28;20233;-65
2022/04/27 08:27:32;;;;;;;4.50;1.08;;;7.90;64.30;;;;;;6198782;28;20241;-66
2022/04/27 08:30:39;;;;;;;1.20;1.10;;;8.00;64.10;;;;;;6199692;28;20602;-66
2022/04/27 08:33:46;;;;;;;4.05;0.90;;;8.00;63.30;;;;;;6199134;28;20284;-66
2022/04/27 08:36:51;;;;;;;2.38;1.10;;;8.10;62.70;;;;;;6199219;28;20220;-66
2022/04/27 08:39:58;;;;;;;1.65;1.50;;;8.10;61.30;;;;;;6199291;28;20242;-67
2022/04/27 08:43:04;;;;;;;9.18;1.13;;;8.10;60.60;;;;;;6181654;28;20237;-65
2022/04/27 08:46:11;;;;;;;4.68;1.10;;;8.10;59.00;;;;;;6199014;28;20668;-65
2022/04/27 08:49:17;;;;;;;2.33;1.00;;;8.10;57.90;;;;;;6198776;28;20241;-65
2022/04/27 08:52:23;;;;;;;4.20;0.90;;;8.20;57.30;;;;;;6198749;28;20206;-66
2022/04/27 08:55:28;;;;;;;1.10;0.95;;;8.30;56.90;;;;;;6199568;28;20214;-65
2022/04/27 08:58:34;;;;;;;2.90;1.15;;;8.40;55.30;;;;;;6181126;28;20240;-66
2022/04/27 09:01:47;;;;;;;2.33;1.13;;;8.20;53.70;;;;;;6198460;28;20214;-66
2022/04/27 09:05:12;;;;;;;1.33;1.20;;;8.40;55.50;;;;;;6180850;28;20664;-66
2022/04/27 09:08:17;;;;;;;3.90;1.20;;;8.40;54.80;;;;;;6197860;28;20241;-65
2022/04/27 09:11:25;;;;;;;4.30;1.00;;;8.40;54.90;;;;;;6181270;28;20645;-65
2022/04/27 09:14:37;;;;;;;2.03;1.00;;;8.40;52.60;;;;;;6198319;28;20245;-66
2022/04/27 09:21:07;;;;;;;1.05;1.00;;;8.30;53.10;;;;;;6198108;28;20217;-66
2022/04/27 09:24:13;;;;;;;1.58;0.90;;;8.30;52.50;;;;;;6197568;28;20644;-65
2022/04/27 09:27:20;;;;;;;3.38;1.00;;;8.40;53.00;;;;;;6197840;28;20521;-66
2022/04/27 09:30:27;;;;;;;1.20;0.93;;;8.50;52.40;;;;;;6198174;28;20226;-67
2022/04/27 09:33:34;;;;;;;0.90;0.90;;;8.60;51.40;;;;;;6198013;28;20240;-66
2022/04/27 09:36:42;;;;;;;1.40;0.82;;;8.50;51.20;;;;;;6197902;28;20256;-65
2022/04/27 09:40:02;;;;;;;0.70;0.70;;;8.30;50.80;;;;;;6197855;28;20226;-65
2022/04/27 09:43:09;;;;;;;0.82;0.82;;;8.30;49.20;;;;;;6180275;28;20230;-66
2022/04/27 09:46:22;;;;;;;2.10;0.85;;;8.40;49.30;;;;;;6198013;28;20213;-65
2022/04/27 09:49:28;;;;;;;1.35;1.02;;;8.30;49.20;;;;;;6197012;28;20248;-65
2022/04/27 09:52:37;;;;;;;1.27;0.77;;;8.40;50.10;;;;;;6197551;28;20229;-66
2022/04/27 09:55:47;;;;;;;0.73;0.70;;;8.40;48.30;;;;;;6197552;28;20213;-65
2022/04/27 09:58:57;;;;;;;1.95;0.75;;;8.60;47.80;;;;;;6197512;28;20260;-66
2022/04/27 10:02:09;;;;;;;0.80;0.80;;;8.80;48.50;;;;;;6198215;28;20525;-65
2022/04/27 10:05:14;;;;;;;1.95;1.00;;;9.00;47.90;;;;;;6196680;28;20216;-66
2022/04/27 10:08:21;;;;;;;0.70;0.70;;;9.20;48.60;;;;;;6197049;28;20238;-67
2022/04/27 10:11:28;;;;;;;3.00;0.80;;;9.20;48.80;;;;;;6197504;28;20202;-65
2022/04/27 10:14:34;;;;;;;2.05;0.80;;;9.30;49.00;;;;;;6197087;28;20248;-66
2022/04/27 10:17:40;;;;;;;0.85;0.85;;;9.30;48.20;;;;;;6197501;28;20243;-66
2022/04/27 10:20:49;;;;;;;0.93;0.90;;;9.50;47.50;;;;;;6198655;28;20220;-65
2022/04/27 10:23:55;;;;;;;1.15;0.80;;;9.50;46.60;;;;;;6202038;28;20238;-67
2022/04/27 10:27:14;;;;;;;3.08;0.80;;;9.50;47.10;;;;;;6203492;28;20214;-66
2022/04/27 10:30:20;;;;;;;2.45;1.00;;;9.60;47.20;;;;;;6201833;28;20226;-67
2022/04/27 10:33:40;;;;;;;3.00;0.80;;;9.40;46.10;;;;;;6201659;28;20234;-66
2022/04/27 10:36:47;;;;;;;1.08;0.90;;;9.60;46.10;;;;;;6202689;28;20501;-67
2022/04/27 10:39:54;;;;;;;0.95;0.90;;;9.80;46.30;;;;;;6201637;28;20268;-66
2022/04/27 10:43:25;;;;;;;1.65;1.00;;;9.90;44.70;;;;;;6201552;28;20229;-66
2022/04/27 10:46:38;;;;;;;0.90;0.90;;;9.90;45.40;;;;;;6202041;28;20216;-66
2022/04/27 10:49:43;;;;;;;0.80;0.80;;;9.90;44.30;;;;;;6201731;28;20245;-66
2022/04/27 10:52:51;;;;;;;4.03;0.82;;;9.90;44.50;;;;;;6201189;28;20226;-66
2022/04/27 10:55:59;;;;;;;1.35;0.90;;;9.90;44.60;;;;;;6202441;28;20502;-66
2022/04/27 10:59:43;;;;;;;0.93;0.93;;;9.80;44.50;;;;;;6200759;28;20245;-66
2022/04/27 11:02:50;;;;;;;0.90;0.90;;;9.90;45.20;;;;;;6201377;28;20234;-65
2022/04/27 11:05:59;;;;;;;1.98;0.93;;;10.00;44.80;;;;;;6201691;28;20238;-66
2022/04/27 11:09:14;;;;;;;5.28;1.00;;;10.10;44.50;;;;;;6200486;28;20583;-66
2022/04/27 11:12:21;;;;;;;1.00;0.82;;;10.20;44.20;;;;;;6224667;28;20212;-68
2022/04/27 11:15:28;;;;;;;4.28;0.90;;;9.80;42.50;;;;;;6225853;28;20544;-67
2022/04/27 11:18:49;;;;;;;2.67;1.02;;;10.00;43.40;;;;;;6223907;28;20651;-65
2022/04/27 11:21:55;;;;;;;1.33;0.98;;;10.00;43.90;;;;;;6225236;28;20209;-66
2022/04/27 11:25:00;;;;;;;3.35;0.75;;;10.10;43.90;;;;;;6225046;28;20229;-66
2022/04/27 11:28:09;;;;;;;0.65;0.60;;;10.10;43.00;;;;;;6224680;28;20232;-66
2022/04/27 11:31:16;;;;;;;4.00;0.98;;;10.00;43.10;;;;;;6224818;28;20248;-66
2022/04/27 11:34:24;;;;;;;0.65;0.65;;;10.00;42.90;;;;;;6224927;28;20248;-67
2022/04/27 11:37:30;;;;;;;0.70;0.70;;;10.00;42.60;;;;;;6205680;28;20209;-66
2022/04/27 11:40:38;;;;;;;3.10;0.77;;;10.10;42.00;;;;;;6225569;28;20644;-66
2022/04/27 11:43:46;;;;;;;2.90;0.68;;;10.00;41.40;;;;;;6224598;28;20247;-66
2022/04/27 11:46:52;;;;;;;0.85;0.85;;;9.80;40.90;;;;;;6225470;28;20205;-67
2022/04/27 11:50:00;;;;;;;1.75;0.80;;;9.90;41.00;;;;;;6224174;28;20648;-66
2022/04/27 11:53:08;;;;;;;0.80;0.80;;;10.00;41.70;;;;;;6224578;28;20263;-66
2022/04/27 11:56:13;;;;;;;0.80;0.80;;;10.10;41.60;;;;;;6224698;28;20286;-66
2022/04/27 11:59:20;;;;;;;1.60;0.88;;;10.00;41.40;;;;;;6224344;28;20231;-66
2022/04/27 12:02:26;;;;;;;0.85;0.85;;;9.80;41.40;;;;;;6224123;28;20215;-66
2022/04/27 12:05:34;;;;;;;0.73;0.73;;;9.70;41.00;;;;;;6224724;28;20627;-67
2022/04/27 12:08:42;;;;;;;1.25;0.60;;;9.60;41.50;;;;;;6223785;28;20237;-66
2022/04/27 12:11:48;;;;;;;0.60;0.60;;;9.70;41.50;;;;;;6224371;28;20225;-65
2022/04/27 12:14:57;;;;;;;0.80;0.80;;;9.90;42.30;;;;;;6223988;28;20232;-66
2022/04/27 12:18:03;;;;;;;0.90;0.70;;;10.20;42.00;;;;;;6223312;28;20229;-67
2022/04/27 12:21:24;;;;;;;0.70;0.70;;;10.20;41.60;;;;;;6224249;28;20209;-66
2022/04/27 12:24:30;;;;;;;1.02;0.82;;;10.30;41.10;;;;;;6223711;28;20233;-67
2022/04/27 12:27:38;;;;;;;3.60;0.90;;;10.40;41.10;;;;;;6226235;28;20226;-68
2022/04/27 12:30:50;;;;;;;2.85;0.90;;;10.30;40.40;;;;;;6229101;28;20230;-66
2022/04/27 12:33:58;;;;;;;7.65;1.00;;;10.40;40.70;;;;;;6230648;28;20247;-66
2022/04/27 12:40:33;;;;;;;1.75;0.77;;;10.40;39.90;;;;;;6225575;28;20237;-66
2022/04/27 12:43:49;;;;;;;1.30;0.80;;;10.30;41.40;;;;;;6223918;28;20252;-67
2022/04/27 12:47:17;;;;;;;1.33;0.73;;;10.50;40.50;;;;;;6231747;28;20211;-65
2022/04/27 12:50:23;;;;;;;4.78;0.80;;;10.50;40.30;;;;;;6226604;28;20303;-66
2022/04/27 12:53:28;;;;;;;2.60;0.77;;;10.70;39.30;;;;;;6229162;28;20723;-64
2022/04/27 12:56:34;;;;;;;5.85;1.20;;;10.60;40.40;;;;;;6228205;28;20227;-66
2022/04/27 12:59:57;;;;;;;6.43;0.80;;;10.50;39.70;;;;;;6223845;28;20326;-65
2022/04/27 13:03:04;;;;;;;0.80;0.80;;;10.50;39.80;;;;;;6222766;28;20229;-66
2022/04/27 13:06:11;;;;;;;0.70;0.70;;;10.60;39.70;;;;;;6223210;28;20583;-66
2022/04/27 13:12:40;;;;;;;1.83;0.90;;;10.90;37.60;;;;;;6222536;28;20244;-65
2022/04/27 13:15:46;;;;;;;0.80;0.80;;;11.10;39.40;;;;;;6223621;28;20644;-66
2022/04/27 13:18:54;;;;;;;1.55;1.10;;;11.00;37.60;;;;;;6222777;28;20237;-66
2022/04/27 13:22:00;;;;;;;2.42;0.80;;;10.70;38.00;;;;;;6223316;28;20231;-66
2022/04/27 13:25:09;;;;;;;0.73;0.73;;;10.70;38.60;;;;;;6222489;28;20240;-66
2022/04/27 13:28:15;;;;;;;3.13;0.80;;;10.70;38.00;;;;;;6204676;28;20691;-66
2022/04/27 13:31:20;;;;;;;1.30;0.80;;;10.90;38.90;;;;;;6223023;28;20225;-66
2022/04/27 13:34:27;;;;;;;0.77;0.77;;;11.00;38.50;;;;;;6221794;28;20244;-65
2022/04/27 13:37:33;;;;;;;0.70;0.70;;;11.00;37.90;;;;;;6222585;28;20225;-66
2022/04/27 13:40:38;;;;;;;1.08;0.80;;;10.90;37.20;;;;;;6222149;28;20212;-65
2022/04/27 13:43:43;;;;;;;1.73;1.00;;;11.10;37.50;;;;;;6221817;28;20255;-67
2022/04/27 13:46:49;;;;;;;0.80;0.80;;;11.20;36.50;;;;;;6222180;28;20205;-67
2022/04/27 13:49:56;;;;;;;0.73;0.73;;;11.00;37.90;;;;;;6221839;28;20605;-67
2022/04/27 13:53:22;;;;;;;1.65;0.80;;;10.80;37.60;;;;;;6221359;28;20236;-66
2022/04/27 13:56:27;;;;;;;1.02;0.90;;;10.70;38.00;;;;;;6222375;28;20220;-66
2022/04/27 13:59:33;;;;;;;0.73;0.70;;;10.70;38.10;;;;;;6221771;28;20239;-66
2022/04/27 14:02:39;;;;;;;0.93;0.80;;;10.70;38.00;;;;;;6221343;28;20237;-65
2022/04/27 14:05:47;;;;;;;2.95;0.80;;;10.80;38.30;;;;;;6222047;28;20204;-66
2022/04/27 14:08:53;;;;;;;1.65;0.70;;;10.80;38.50;;;;;;6221922;28;20243;-66
2022/04/27 14:15:22;;;;;;;14.98;1.55;;;10.50;50.20;;;;;;6196527;28;20272;-65
2022/04/27 14:18:26;;;;;;;3.30;1.08;;;10.40;52.20;;;;;;6196602;28;20238;-66
2022/04/27 14:21:33;;;;;;;9.05;1.15;;;10.30;53.00;;;;;;6197470;28;20205;-67
2022/04/27 14:24:38;;;;;;;4.00;0.85;;;10.00;54.10;;;;;;6196838;28;20641;-67
2022/04/27 14:27:43;;;;;;;1.55;1.00;;;9.80;54.90;;;;;;6196894;28;20236;-66
2022/04/27 14:30:49;;;;;;;6.40;1.10;;;10.00;54.80;;;;;;6197831;28;20539;-66
2022/04/27 14:33:55;;;;;;;0.88;0.88;;;10.10;55.10;;;;;;6196895;28;20234;-66
2022/04/27 14:37:02;;;;;;;9.95;1.23;;;9.80;55.60;;;;;;6197687;28;20242;-66
2022/04/27 14:40:10;;;;;;;4.15;1.10;;;9.70;56.80;;;;;;6197138;28;20245;-66
2022/04/27 14:43:16;;;;;;;2.47;1.10;;;9.70;56.70;;;;;;6196871;28;20556;-66
2022/04/27 14:46:23;;;;;;;3.45;0.98;;;9.70;57.00;;;;;;6197684;28;20290;-66
2022/04/27 14:49:28;;;;;;;1.00;1.00;;;9.50;57.60;;;;;;6196385;28;20241;-66
2022/04/27 14:52:37;;;;;;;3.10;1.10;;;9.60;57.70;;;;;;6196683;28;20309;-66
2022/04/27 14:55:43;;;;;;;1.55;1.17;;;9.60;57.30;;;;;;6197222;28;20239;-66
2022/04/27 14:58:49;;;;;;;1.08;1.00;;;9.40;58.10;;;;;;6196879;28;20248;-66
2022/04/27 15:01:54;;;;;;;0.85;0.85;;;9.50;57.80;;;;;;6197201;28;20202;-66
2022/04/27 15:05:01;;;;;;;1.08;1.08;;;9.30;58.20;;;;;;6196499;28;20265;-66
2022/04/27 15:08:08;;;;;;;1.63;0.90;;;9.20;58.00;;;;;;6194420;28;20261;-66
2022/04/27 15:11:14;;;;;;;1.17;0.90;;;9.10;57.70;;;;;;6211944;28;20209;-66
2022/04/27 15:14:19;;;;;;;1.05;0.80;;;9.20;57.60;;;;;;6225299;28;20233;-66
2022/04/27 15:17:28;;;;;;;4.07;1.00;;;9.20;57.30;;;;;;6225196;28;20219;-67
2022/04/27 15:24:08;;;;;;;2.13;0.70;;;8.80;57.90;;;;;;6224865;28;20662;-67
2022/04/27 15:27:13;;;;;;;1.02;1.02;;;8.60;58.80;;;;;;6225147;28;20215;-66
2022/04/27 15:30:27;;;;;;;1.08;0.98;;;8.60;59.00;;;;;;6225404;28;20205;-65
2022/04/27 15:33:32;;;;;;;0.98;0.98;;;8.50;59.90;;;;;;6224825;28;20668;-65
2022/04/27 15:36:40;;;;;;;14.00;1.60;;;8.50;60.00;;;;;;6225226;28;20213;-66
2022/04/27 15:39:47;;;;;;;1.35;1.00;;;8.60;59.30;;;;;;6225053;28;20229;-66
2022/04/27 15:42:53;;;;;;;3.63;1.10;;;8.60;59.00;;;;;;6224913;28;20236;-66
2022/04/27 15:45:58;;;;;;;0.98;0.88;;;8.70;58.80;;;;;;6224887;28;20300;-66
2022/04/27 15:49:04;;;;;;;3.72;0.98;;;8.60;58.90;;;;;;6224720;28;20229;-66
2022/04/27 15:52:16;;;;;;;1.23;0.90;;;8.50;59.30;;;;;;6224491;28;20609;-66
2022/04/27 15:55:23;;;;;;;0.93;0.93;;;8.30;59.80;;;;;;6224986;28;20262;-66
2022/04/27 15:58:29;;;;;;;1.48;1.00;;;8.20;60.30;;;;;;6224138;28;20238;-65
2022/04/27 16:01:36;;;;;;;1.23;0.90;;;8.30;60.50;;;;;;6224217;28;20220;-67
2022/04/27 16:04:42;;;;;;;1.10;1.10;;;8.40;60.50;;;;;;6224388;28;20245;-66
2022/04/27 16:07:48;;;;;;;9.13;1.40;;;8.20;60.60;;;;;;6224015;28;20233;-67
2022/04/27 16:10:55;;;;;;;1.75;1.00;;;8.10;61.30;;;;;;6224903;28;20629;-66
2022/04/27 16:14:01;;;;;;;1.05;0.95;;;8.00;62.20;;;;;;6224650;28;20244;-65
2022/04/27 16:17:10;;;;;;;3.20;0.88;;;8.10;62.50;;;;;;6224630;28;20212;-67
2022/04/27 16:20:15;;;;;;;1.92;0.80;;;8.00;63.30;;;;;;6223393;28;20216;-65
2022/04/27 16:23:20;;;;;;;4.57;1.00;;;7.80;64.10;;;;;;6223282;28;20235;-66
2022/04/27 16:26:27;;;;;;;3.53;1.10;;;7.70;65.60;;;;;;6222637;28;20205;-65
2022/04/27 16:29:33;;;;;;;4.72;1.05;;;7.70;65.80;;;;;;6205878;28;20229;-66
2022/04/27 16:32:39;;;;;;;0.90;0.90;;;7.70;66.40;;;;;;6223418;28;20255;-66
2022/04/27 16:35:44;;;;;;;0.90;0.90;;;7.70;66.00;;;;;;6206329;28;20232;-65
2022/04/27 16:38:50;;;;;;;0.95;0.95;;;7.60;66.60;;;;;;6223518;28;20259;-66
2022/04/27 16:41:56;;;;;;;1.60;1.10;;;7.70;66.90;;;;;;6224035;28;20210;-66
2022/04/27 16:45:03;;;;;;;1.10;1.10;;;7.70;66.80;;;;;;6199241;28;20318;-67
2022/04/27 16:48:14;;;;;;;2.00;0.93;;;7.70;66.60;;;;;;6198763;28;20228;-66
2022/04/27 16:51:20;;;;;;;2.58;1.20;;;7.60;67.10;;;;;;6199433;28;20216;-66
2022/04/27 16:54:25;;;;;;;2.75;1.20;;;7.50;66.70;;;;;;6198467;28;20245;-64
2022/04/27 16:57:32;;;;;;;4.13;1.48;;;7.40;66.60;;;;;;6199012;28;20214;-64
2022/04/27 17:00:52;;;;;;;0.80;0.80;;;7.40;67.20;;;;;;6204040;28;20206;-65
2022/04/27 17:03:58;;;;;;;1.10;0.82;;;7.40;67.00;;;;;;6204540;28;20230;-67
2022/04/27 17:07:05;;;;;;;1.07;0.97;;;7.30;67.20;;;;;;6202466;28;20249;-65
2022/04/27 17:10:12;;;;;;;1.85;1.00;;;7.20;68.00;;;;;;6191390;28;20598;-65